Time;durP1;ratioP1;P1;durP2;ratioP2;P2;SDS_P1;SDS_P2;PMS_P1;PMS_P2;Temp;Humidity;BMP_temperature;BMP_pressure;BME280_temperature;BME280_humidity;BME280_pressure;Samples;Min_cycle;Max_cycle;Signal;HPM_P1;HPM_P2
2023/12/09 00:00:17;;;;;;;18.95;14.20;;;;;;;-2.22;100.00;97854.59;1224903;75;2916625;-62
2023/12/09 00:02:50;;;;;;;23.40;16.90;;;;;;;-2.22;100.00;97862.66;1225671;75;2919596;-64
2023/12/09 00:05:23;;;;;;;27.00;19.70;;;;;;;-2.36;100.00;97862.66;1225640;75;2915688;-62
2023/12/09 00:07:56;;;;;;;33.65;24.45;;;;;;;-2.40;100.00;97856.56;1226041;75;2921618;-65
2023/12/09 00:10:28;;;;;;;32.85;24.20;;;;;;;-2.50;100.00;97855.41;1225910;75;2915020;-64
2023/12/09 00:13:01;;;;;;;31.25;22.65;;;;;;;-2.20;100.00;97862.28;1224908;75;2921785;-63
2023/12/09 00:15:37;;;;;;;31.95;23.65;;;;;;;-2.43;100.00;97860.00;1224158;75;2925403;-63
2023/12/09 00:18:11;;;;;;;32.65;25.10;;;;;;;-2.45;100.00;97859.63;1225612;75;2917409;-64
2023/12/09 00:20:44;;;;;;;27.90;22.10;;;;;;;-2.15;100.00;97868.00;1225336;75;2919867;-63
2023/12/09 00:23:17;;;;;;;24.10;17.40;;;;;;;-1.93;100.00;97859.94;1226080;75;2922980;-64
2023/12/09 00:25:50;;;;;;;27.85;20.80;;;;;;;-2.21;100.00;97855.41;1225290;75;2918558;-63
2023/12/09 00:28:23;;;;;;;27.80;20.60;;;;;;;-2.17;100.00;97856.13;1224946;75;2918837;-62
2023/12/09 00:30:59;;;;;;;23.70;17.75;;;;;;;-1.91;100.00;97857.63;1225399;75;2927846;-64
2023/12/09 00:33:31;;;;;;;20.80;15.75;;;;;;;-1.95;100.00;97857.66;1225026;75;2922956;-64
2023/12/09 00:36:04;;;;;;;20.05;15.70;;;;;;;-2.00;100.00;97866.06;1225526;75;2921152;-61
2023/12/09 00:38:37;;;;;;;23.75;16.95;;;;;;;-2.13;100.00;97848.88;1225596;75;2921449;-63
2023/12/09 00:41:10;;;;;;;31.25;21.75;;;;;;;-2.32;100.00;97846.59;1225453;75;2920242;-66
2023/12/09 00:43:43;;;;;;;28.55;21.55;;;;;;;-2.22;100.00;97851.16;1225056;75;2920436;-65
2023/12/09 00:46:19;;;;;;;27.40;20.50;;;;;;;-2.19;100.00;97853.84;1225901;75;2919282;-63
2023/12/09 00:48:51;;;;;;;23.40;19.00;;;;;;;-2.14;100.00;97852.72;1225397;75;2916393;-63
2023/12/09 00:51:24;;;;;;;26.35;18.85;;;;;;;-2.08;100.00;97853.81;1225657;75;2920440;-63
2023/12/09 00:53:57;;;;;;;23.90;17.40;;;;;;;-2.03;100.00;97842.69;1225188;75;2916342;-62
2023/12/09 00:56:30;;;;;;;22.15;16.35;;;;;;;-2.03;100.00;97839.25;1225440;75;2913206;-64
2023/12/09 00:59:03;;;;;;;23.90;17.15;;;;;;;-2.07;100.00;97836.56;1225771;75;2914345;-63
2023/12/09 01:01:38;;;;;;;21.80;15.85;;;;;;;-1.91;100.00;97846.13;1225311;75;2921054;-63
2023/12/09 01:04:11;;;;;;;18.70;14.50;;;;;;;-1.80;100.00;97844.19;1224862;75;2920618;-66
2023/12/09 01:06:44;;;;;;;25.00;17.50;;;;;;;-2.02;100.00;97843.47;1223935;75;2916873;-62
2023/12/09 01:09:16;;;;;;;21.40;15.35;;;;;;;-1.88;100.00;97837.31;1225398;75;2922779;-62
2023/12/09 01:11:50;;;;;;;25.00;18.00;;;;;;;-2.05;100.00;97838.88;1225231;75;2922970;-65
2023/12/09 01:14:23;;;;;;;21.40;15.95;;;;;;;-1.94;100.00;97835.03;1225341;75;2920863;-62
2023/12/09 01:16:58;;;;;;;22.50;15.80;;;;;;;-2.04;100.00;97832.38;1224472;67;2914651;-62
2023/12/09 01:19:31;;;;;;;28.30;19.15;;;;;;;-2.21;100.00;97836.63;1223992;75;2936702;-63
2023/12/09 01:22:04;;;;;;;27.55;20.25;;;;;;;-2.05;100.00;97842.31;1223776;75;2920581;-62
2023/12/09 01:24:36;;;;;;;30.35;21.00;;;;;;;-2.16;100.00;97838.91;1225270;83;2943500;-62
2023/12/09 01:27:09;;;;;;;29.90;22.40;;;;;;;-2.24;100.00;97851.53;1226431;75;2914128;-61
2023/12/09 01:29:43;;;;;;;30.70;22.65;;;;;;;-2.21;100.00;97842.75;1226009;75;2915734;-64
2023/12/09 01:32:18;;;;;;;33.80;22.80;;;;;;;-2.21;100.00;97850.03;1225011;75;2916909;-64
2023/12/09 01:34:51;;;;;;;28.00;20.95;;;;;;;-2.18;100.00;97833.94;1225419;75;2897537;-63
2023/12/09 01:37:24;;;;;;;25.60;19.45;;;;;;;-2.14;100.00;97836.63;1224941;75;2915260;-62
2023/12/09 01:39:57;;;;;;;25.95;19.70;;;;;;;-2.13;100.00;97837.38;1224114;75;2916314;-66
2023/12/09 01:42:30;;;;;;;25.05;18.80;;;;;;;-1.96;100.00;97831.19;1225099;75;2921859;-63
2023/12/09 01:45:03;;;;;;;26.45;18.50;;;;;;;-2.03;100.00;97825.84;1225206;75;2917463;-65
2023/12/09 01:47:39;;;;;;;25.55;17.70;;;;;;;-2.17;100.00;97827.41;1225864;75;2919524;-62
2023/12/09 01:50:13;;;;;;;26.80;21.45;;;;;;;-2.31;100.00;97827.41;1225030;75;2920448;-65
2023/12/09 01:52:46;;;;;;;31.95;22.75;;;;;;;-2.42;100.00;97824.75;1225229;75;2915459;-64
2023/12/09 01:55:20;;;;;;;31.80;23.20;;;;;;;-2.49;100.00;97827.44;1225195;75;2916871;-61
2023/12/09 01:57:53;;;;;;;29.55;23.20;;;;;;;-2.48;100.00;97831.66;1224849;75;2917995;-65
2023/12/09 02:00:27;;;;;;;29.60;23.05;;;;;;;-2.49;100.00;97827.44;1224927;75;2920168;-66
2023/12/09 02:03:03;;;;;;;37.10;25.70;;;;;;;-2.57;100.00;97837.41;1225734;75;2920680;-62
2023/12/09 02:05:35;;;;;;;34.10;24.40;;;;;;;-2.59;100.00;97833.59;1226029;75;2908391;-64
2023/12/09 02:08:08;;;;;;;34.25;25.25;;;;;;;-2.66;100.00;97831.66;1224079;75;2919547;-65
2023/12/09 02:10:42;;;;;;;34.50;25.85;;;;;;;-2.66;100.00;97831.66;1224053;75;2927455;-62
2023/12/09 02:13:23;;;;;;;39.65;27.20;;;;;;;-2.79;100.00;97833.19;1224891;75;2919447;-65
2023/12/09 02:16:05;;;;;;;37.60;26.85;;;;;;;-2.73;100.00;97826.31;1225341;75;2922339;-64
2023/12/09 02:18:44;;;;;;;32.75;25.55;;;;;;;-2.66;100.00;97826.31;1225010;75;2920032;-65
2023/12/09 02:21:17;;;;;;;33.70;23.45;;;;;;;-2.46;100.00;97824.00;1224498;75;2916082;-61
2023/12/09 02:23:52;;;;;;;30.60;22.00;;;;;;;-2.61;100.00;97825.16;1225555;75;2922475;-63
2023/12/09 02:26:29;;;;;;;28.55;21.65;;;;;;;-2.53;100.00;97818.63;1225198;75;2917706;-64
2023/12/09 02:29:09;;;;;;;30.10;23.60;;;;;;;-2.72;100.00;97819.78;1224940;75;2926429;-64
2023/12/09 02:31:43;;;;;;;27.45;20.90;;;;;;;-2.41;100.00;97812.13;1224461;75;2925842;-65
2023/12/09 02:34:18;;;;;;;26.00;20.30;;;;;;;-2.47;100.00;97816.34;1224956;75;2915842;-63
2023/12/09 02:36:53;;;;;;;25.10;19.50;;;;;;;-2.46;100.00;97813.28;1224752;75;2920957;-63
2023/12/09 02:39:29;;;;;;;23.00;18.25;;;;;;;-2.29;100.00;97816.31;1225393;75;2918355;-62
2023/12/09 02:42:03;;;;;;;19.55;14.55;;;;;;;-2.26;100.00;97816.34;1224297;75;2929734;-64
2023/12/09 02:44:36;;;;;;;20.35;14.95;;;;;;;-2.13;100.00;97808.63;1225197;75;2920281;-63
2023/12/09 02:47:09;;;;;;;19.45;14.50;;;;;;;-2.30;100.00;97809.44;1224466;75;2924451;-65
2023/12/09 02:49:42;;;;;;;20.20;16.00;;;;;;;-2.40;100.00;97808.31;1225127;75;2926330;-61
2023/12/09 02:52:15;;;;;;;17.60;14.55;;;;;;;-2.23;100.00;97810.19;1225365;75;2920405;-60
2023/12/09 02:54:50;;;;;;;18.40;14.25;;;;;;;-2.18;100.00;97817.84;1225000;75;2922987;-63
2023/12/09 02:57:23;;;;;;;18.00;14.10;;;;;;;-2.28;100.00;97815.94;1224523;75;2920299;-65
2023/12/09 02:59:56;;;;;;;21.75;16.55;;;;;;;-2.39;100.00;97817.88;1225689;75;2927459;-62
2023/12/09 03:02:28;;;;;;;21.20;16.20;;;;;;;-2.16;100.00;97809.41;1224906;75;2918129;-63
2023/12/09 03:05:01;;;;;;;19.90;15.85;;;;;;;-2.28;100.00;97815.94;1224530;83;2921708;-65
2023/12/09 03:07:34;;;;;;;20.00;16.00;;;;;;;-2.34;100.00;97816.72;1224870;75;2914516;-63
2023/12/09 03:10:11;;;;;;;24.65;18.70;;;;;;;-2.42;100.00;97822.09;1224906;75;2919046;-63
2023/12/09 03:12:43;;;;;;;26.15;18.60;;;;;;;-2.42;100.00;97818.66;1224350;75;2926627;-61
2023/12/09 03:15:16;;;;;;;24.95;19.80;;;;;;;-2.43;100.00;97827.81;1225360;75;2920749;-63
2023/12/09 03:17:49;;;;;;;27.05;19.15;;;;;;;-2.34;100.00;97814.78;1225282;75;2917143;-61
2023/12/09 03:20:22;;;;;;;21.05;16.00;;;;;;;-2.22;100.00;97822.44;1224819;75;2946631;-63
2023/12/09 03:22:55;;;;;;;22.45;17.00;;;;;;;-2.29;100.00;97822.44;1184267;75;6222160;-61
2023/12/09 03:25:32;;;;;;;18.40;14.15;;;;;;;-2.24;100.00;97823.97;1224928;75;2918123;-62
2023/12/09 03:28:05;;;;;;;22.35;16.30;;;;;;;-2.26;100.00;97829.72;1225817;75;2923038;-65
2023/12/09 03:30:37;;;;;;;20.70;15.15;;;;;;;-2.23;100.00;97828.97;1224899;75;2918631;-65
2023/12/09 03:33:10;;;;;;;21.20;14.75;;;;;;;-2.20;100.00;97836.22;1224416;75;2920589;-63
2023/12/09 03:35:44;;;;;;;18.35;14.25;;;;;;;-2.08;100.00;97840.41;1224231;75;2922060;-64
2023/12/09 03:38:16;;;;;;;17.15;13.25;;;;;;;-1.93;100.00;97833.84;1223768;75;2920047;-62
2023/12/09 03:40:49;;;;;;;13.80;11.05;;;;;;;-1.89;100.00;97830.41;1225046;75;2917774;-64
2023/12/09 03:43:22;;;;;;;13.50;10.30;;;;;;;-1.84;100.00;97838.81;1224164;75;2924521;-65
2023/12/09 03:45:55;;;;;;;11.75;9.60;;;;;;;-1.78;100.00;97829.22;1225824;75;2930470;-62
2023/12/09 03:48:28;;;;;;;13.00;9.40;;;;;;;-1.83;100.00;97843.03;1225102;75;2914082;-61
2023/12/09 03:51:01;;;;;;;12.50;9.50;;;;;;;-1.73;100.00;97839.56;1222348;75;2923965;-63
2023/12/09 03:53:34;;;;;;;11.05;9.10;;;;;;;-1.76;100.00;97840.31;1224506;75;2931343;-61
2023/12/09 03:56:11;;;;;;;11.40;9.40;;;;;;;-1.79;100.00;97846.47;1224865;75;2920984;-62
2023/12/09 03:58:44;;;;;;;13.45;10.10;;;;;;;-1.88;100.00;97840.75;1224225;75;2930575;-61
2023/12/09 04:01:17;;;;;;;18.75;14.15;;;;;;;-2.09;100.00;97840.78;1225048;75;2935484;-63
2023/12/09 04:03:49;;;;;;;21.50;16.80;;;;;;;-2.06;100.00;97838.13;1225247;75;2920945;-61
2023/12/09 04:06:22;;;;;;;23.25;17.20;;;;;;;-2.08;100.00;97834.28;1224164;75;2916915;-61
2023/12/09 04:08:55;;;;;;;22.10;17.55;;;;;;;-2.06;100.00;97843.47;1225064;75;2916509;-66
2023/12/09 04:11:31;;;;;;;21.85;16.05;;;;;;;-2.05;100.00;97841.56;1224595;75;2922523;-62
2023/12/09 04:14:03;;;;;;;21.75;16.80;;;;;;;-2.13;100.00;97840.81;1224023;75;2931239;-64
2023/12/09 04:16:36;;;;;;;22.50;17.00;;;;;;;-2.03;100.00;97847.31;1225456;75;2919005;-64
2023/12/09 04:19:09;;;;;;;27.60;19.45;;;;;;;-2.12;100.00;97847.69;1225023;75;2917240;-64
2023/12/09 04:21:42;;;;;;;22.10;17.10;;;;;;;-1.98;100.00;97850.34;1225145;75;2915710;-61
2023/12/09 04:24:14;;;;;;;22.90;16.50;;;;;;;-2.07;100.00;97858.03;1225214;75;2919133;-62
2023/12/09 04:26:50;;;;;;;20.40;16.85;;;;;;;-2.04;100.00;97851.91;1225292;75;2923062;-64
2023/12/09 04:29:23;;;;;;;22.00;17.35;;;;;;;-2.16;100.00;97863.03;1224712;75;2917267;-64
2023/12/09 04:31:55;;;;;;;27.15;19.05;;;;;;;-2.20;100.00;97864.97;1225296;75;2921127;-62
2023/12/09 04:34:28;;;;;;;21.95;17.35;;;;;;;-2.11;100.00;97865.34;1224786;75;2926204;-61
2023/12/09 04:37:01;;;;;;;26.40;19.45;;;;;;;-2.27;100.00;97867.66;1224623;75;2917821;-64
2023/12/09 04:39:34;;;;;;;22.95;18.30;;;;;;;-2.21;100.00;97869.56;1224985;75;2921099;-59
2023/12/09 04:42:09;;;;;;;24.65;18.75;;;;;;;-2.25;100.00;97868.78;1225344;75;2922670;-61
2023/12/09 04:44:42;;;;;;;24.85;18.85;;;;;;;-2.20;100.00;97871.09;1224725;75;2929646;-65
2023/12/09 04:47:15;;;;;;;23.30;18.75;;;;;;;-2.20;100.00;97873.75;1226083;75;2921230;-64
2023/12/09 04:49:48;;;;;;;22.80;17.70;;;;;;;-2.27;100.00;97871.09;1225672;75;2917970;-65
2023/12/09 04:52:21;;;;;;;23.25;16.65;;;;;;;-2.05;100.00;97874.50;1224879;75;2917347;-64
2023/12/09 04:54:54;;;;;;;19.50;15.00;;;;;;;-1.99;100.00;97874.91;1225022;75;2918439;-62
2023/12/09 04:57:30;;;;;;;20.90;15.00;;;;;;;-1.99;100.00;97880.28;1225659;75;2922515;-66
2023/12/09 05:00:04;;;;;;;16.20;12.90;;;;;;;-1.88;100.00;97874.88;1224669;75;2916994;-64
2023/12/09 05:02:37;;;;;;;21.10;16.65;;;;;;;-2.14;100.00;97890.25;1225818;75;2916650;-61
2023/12/09 05:05:11;;;;;;;19.80;15.80;;;;;;;-1.94;100.00;97879.88;1224237;75;2926782;-63
2023/12/09 05:07:44;;;;;;;18.85;14.55;;;;;;;-1.90;100.00;97886.00;1223998;75;2927056;-64
2023/12/09 05:10:17;;;;;;;17.35;13.30;;;;;;;-1.90;100.00;97887.91;1225100;75;2919177;-62
2023/12/09 05:12:52;;;;;;;17.35;12.45;;;;;;;-1.89;100.00;97897.50;1224658;75;2919083;-62
2023/12/09 05:15:25;;;;;;;21.25;15.30;;;;;;;-1.89;100.00;97897.50;1225130;75;2922423;-63
2023/12/09 05:17:58;;;;;;;21.10;15.45;;;;;;;-1.80;100.00;97887.13;1225419;75;2918144;-65
2023/12/09 05:20:31;;;;;;;14.40;11.80;;;;;;;-1.80;100.00;97884.44;1224766;75;2918193;-64
2023/12/09 05:23:05;;;;;;;14.05;11.50;;;;;;;-1.71;100.00;97884.78;1224782;75;2923729;-63
2023/12/09 05:25:38;;;;;;;15.95;12.50;;;;;;;-1.78;100.00;97890.97;1224217;75;2927006;-64
2023/12/09 05:28:13;;;;;;;14.25;11.25;;;;;;;-1.62;100.00;97900.50;1224388;75;2922436;-61
2023/12/09 05:30:46;;;;;;;12.00;9.50;;;;;;;-1.56;100.00;97894.34;1224591;75;2926076;-62
2023/12/09 05:33:19;;;;;;;13.85;11.25;;;;;;;-1.90;100.00;97895.94;1225404;75;2919560;-63
2023/12/09 05:35:52;;;;;;;18.60;14.60;;;;;;;-2.01;100.00;97896.75;1224525;75;2921468;-63
2023/12/09 05:38:25;;;;;;;21.55;15.85;;;;;;;-2.06;100.00;97904.41;1224637;75;2920271;-65
2023/12/09 05:40:57;;;;;;;20.20;15.25;;;;;;;-2.01;100.00;97909.38;1224663;75;2916905;-63
2023/12/09 05:43:33;;;;;;;21.70;16.55;;;;;;;-2.03;100.00;97914.38;1224886;75;2919781;-62
2023/12/09 05:46:06;;;;;;;24.40;17.95;;;;;;;-2.08;100.00;97896.75;1225299;75;2917563;-63
2023/12/09 05:48:39;;;;;;;21.55;15.50;;;;;;;-1.91;100.00;97905.16;1224902;75;2914933;-61
2023/12/09 05:51:14;;;;;;;18.55;14.60;;;;;;;-2.06;100.00;97901.72;1224493;75;2921836;-65
2023/12/09 05:53:47;;;;;;;20.30;13.80;;;;;;;-2.05;100.00;97897.88;1223597;75;2916152;-66
2023/12/09 05:56:20;;;;;;;19.95;15.95;;;;;;;-2.23;100.00;97898.69;1225244;75;2921888;-61
2023/12/09 05:58:55;;;;;;;22.70;18.55;;;;;;;-2.09;100.00;97905.16;1224458;75;2923949;-64
2023/12/09 06:01:28;;;;;;;20.30;15.25;;;;;;;-1.99;100.00;97904.41;1224247;75;2914577;-65
2023/12/09 06:04:01;;;;;;;20.50;16.50;;;;;;;-2.22;100.00;97905.56;1224154;75;2931187;-64
2023/12/09 06:06:34;;;;;;;18.65;15.50;;;;;;;-2.12;100.00;97908.63;1224352;75;2923607;-63
2023/12/09 06:09:08;;;;;;;23.90;17.95;;;;;;;-2.23;100.00;97906.72;1223891;75;2918880;-64
2023/12/09 06:11:41;;;;;;;27.20;20.00;;;;;;;-2.21;100.00;97904.44;1222924;75;2923550;-65
2023/12/09 06:14:17;;;;;;;25.80;19.65;;;;;;;-2.23;100.00;97909.41;1220150;75;2925879;-65
2023/12/09 06:16:50;;;;;;;26.05;19.00;;;;;;;-2.12;100.00;97906.69;1225082;75;2917895;-62
2023/12/09 06:19:23;;;;;;;24.15;18.80;;;;;;;-2.07;100.00;97902.88;1224245;75;2918818;-66
2023/12/09 06:21:57;;;;;;;24.35;18.10;;;;;;;-2.03;100.00;97906.31;1224069;75;2917644;-66
2023/12/09 06:24:30;;;;;;;20.45;15.55;;;;;;;-1.99;100.00;97905.16;1224131;75;2968738;-64
2023/12/09 06:27:03;;;;;;;19.00;14.95;;;;;;;-1.90;100.00;97899.41;1224150;75;2917265;-61
2023/12/09 06:29:39;;;;;;;20.65;16.20;;;;;;;-2.07;100.00;97902.88;1222693;75;2922887;-63
2023/12/09 06:32:12;;;;;;;22.80;16.10;;;;;;;-2.10;100.00;97907.09;1224651;75;2925072;-63
2023/12/09 06:34:44;;;;;;;20.80;16.80;;;;;;;-2.01;100.00;97904.03;1224556;75;2925081;-64
2023/12/09 06:37:18;;;;;;;21.40;16.40;;;;;;;-1.90;100.00;97901.31;1225127;75;2919784;-64
2023/12/09 06:39:51;;;;;;;18.05;14.15;;;;;;;-1.69;100.00;97898.59;1224686;75;2920627;-65
2023/12/09 06:42:24;;;;;;;21.25;15.95;;;;;;;-1.84;100.00;97897.84;1224217;75;2919194;-63
2023/12/09 06:44:59;;;;;;;17.60;14.30;;;;;;;-1.80;100.00;97901.31;1224444;75;2916972;-63
2023/12/09 06:47:32;;;;;;;19.75;15.25;;;;;;;-1.78;100.00;97906.28;1223395;75;2921735;-62
2023/12/09 06:50:06;;;;;;;17.00;13.05;;;;;;;-1.64;100.00;97906.22;1225273;75;2913583;-62
2023/12/09 06:52:39;;;;;;;16.65;12.60;;;;;;;-1.81;100.00;97909.72;1224474;75;2932949;-63
2023/12/09 06:55:12;;;;;;;15.80;12.20;;;;;;;-1.67;100.00;97908.94;1223911;75;2921443;-67
2023/12/09 06:57:45;;;;;;;14.35;11.10;;;;;;;-1.73;100.00;97913.94;1225132;75;2918714;-61
2023/12/09 07:00:22;;;;;;;15.65;12.25;;;;;;;-1.60;100.00;97908.94;1225337;75;2918515;-64
2023/12/09 07:02:54;;;;;;;16.35;12.10;;;;;;;-1.64;100.00;97910.84;1224029;75;2921735;-62
2023/12/09 07:05:27;;;;;;;17.55;13.15;;;;;;;-1.92;100.00;97915.13;1223574;75;2916978;-64
2023/12/09 07:08:00;;;;;;;19.15;14.05;;;;;;;-1.78;100.00;97911.63;1223712;75;2946048;-64
2023/12/09 07:10:33;;;;;;;19.40;14.20;;;;;;;-1.82;100.00;97914.34;1223296;75;2923652;-64
2023/12/09 07:13:06;;;;;;;23.90;16.95;;;;;;;-2.03;100.00;97911.69;1224561;75;2925603;-64
2023/12/09 07:15:42;;;;;;;22.30;17.65;;;;;;;-2.02;100.00;97910.53;1224300;75;2917479;-63
2023/12/09 07:18:14;;;;;;;22.00;15.85;;;;;;;-1.90;100.00;97904.78;1224058;75;2949386;-65
2023/12/09 07:20:47;;;;;;;18.70;15.25;;;;;;;-1.91;100.00;97907.84;1224851;75;2923597;-64
2023/12/09 07:23:20;;;;;;;19.90;15.80;;;;;;;-1.83;100.00;97898.63;1225157;75;2919025;-62
2023/12/09 07:25:53;;;;;;;36.15;25.80;;;;;;;-1.81;100.00;97902.44;1224362;75;2921504;-64
2023/12/09 07:28:26;;;;;;;31.65;24.60;;;;;;;-1.72;100.00;97897.44;1224116;75;2926578;-64
2023/12/09 07:31:02;;;;;;;27.05;21.60;;;;;;;-1.59;100.00;97911.22;1223600;75;2927086;-64
2023/12/09 07:33:35;;;;;;;24.15;19.50;;;;;;;-1.72;100.00;97908.19;1225097;75;2921697;-63
2023/12/09 07:36:09;;;;;;;23.60;17.50;;;;;;;-1.81;100.00;97909.72;1224678;75;2924604;-63
2023/12/09 07:38:41;;;;;;;26.10;17.80;;;;;;;-1.78;100.00;97917.00;1223824;75;2933096;-64
2023/12/09 07:41:14;;;;;;;23.10;18.05;;;;;;;-1.75;100.00;97908.19;1224676;75;2929380;-63
2023/12/09 07:43:47;;;;;;;24.15;18.65;;;;;;;-1.73;100.00;97911.25;1224155;75;2915576;-66
2023/12/09 07:46:24;;;;;;;24.00;18.35;;;;;;;-1.76;100.00;97904.72;1224378;75;2922185;-65
2023/12/09 07:48:56;;;;;;;21.90;17.70;;;;;;;-1.77;100.00;97900.53;1224954;75;2918482;-63
2023/12/09 07:51:29;;;;;;;21.45;17.25;;;;;;;-1.53;100.00;97906.22;1224569;75;2917826;-65
2023/12/09 07:54:02;;;;;;;25.35;19.85;;;;;;;-1.74;100.00;97904.34;1224295;75;2925212;-66
2023/12/09 07:56:35;;;;;;;24.10;17.90;;;;;;;-1.40;100.00;97903.88;1225067;75;2919742;-63
2023/12/09 07:59:08;;;;;;;20.40;15.35;;;;;;;-1.17;100.00;97914.91;1224376;75;2933979;-65
2023/12/09 08:01:44;;;;;;;18.90;15.70;;;;;;;-1.38;100.00;97909.63;1223266;75;2923908;-64
2023/12/09 08:04:17;;;;;;;19.85;15.55;;;;;;;-1.30;100.00;97916.47;1224107;75;2923776;-64
2023/12/09 08:06:52;;;;;;;20.35;16.25;;;;;;;-1.22;100.00;97915.31;1224328;75;2925915;-65
2023/12/09 08:09:25;;;;;;;22.30;16.80;;;;;;;-1.31;100.00;97910.34;1224219;75;2949241;-63
2023/12/09 08:11:57;;;;;;;23.85;16.45;;;;;;;-1.25;100.00;97907.25;1224481;75;2920603;-64
2023/12/09 08:14:30;;;;;;;21.10;15.05;;;;;;;-1.08;100.00;97919.88;1224042;75;2922209;-64
2023/12/09 08:17:06;;;;;;;22.20;17.25;;;;;;;-1.26;100.00;97913.78;1224028;75;2928292;-65
2023/12/09 08:19:39;;;;;;;25.80;19.30;;;;;;;-1.38;100.00;97915.00;1223783;75;2922135;-63
2023/12/09 08:22:12;;;;;;;21.55;17.00;;;;;;;-1.02;100.00;97910.22;1223455;75;2929008;-66
2023/12/09 08:24:45;;;;;;;21.40;16.20;;;;;;;-0.99;100.00;97914.81;1224254;75;2925870;-65
2023/12/09 08:27:18;;;;;;;18.85;15.20;;;;;;;-0.94;100.00;97910.94;1223892;75;2929125;-64
2023/12/09 08:29:51;;;;;;;17.10;14.35;;;;;;;-0.53;100.00;97913.00;1224702;75;2920647;-63
2023/12/09 08:32:27;;;;;;;15.60;12.75;;;;;;;-0.33;100.00;97911.34;1224178;75;2924251;-63
2023/12/09 08:34:59;;;;;;;13.40;11.30;;;;;;;-0.29;100.00;97912.06;1224652;75;2921079;-64
2023/12/09 08:37:32;;;;;;;20.60;17.65;;;;;;;-0.64;100.00;97918.47;1223735;75;2926987;-64
2023/12/09 08:40:12;;;;;;;18.30;14.60;;;;;;;-0.23;100.00;97918.53;1225300;75;2916948;-65
2023/12/09 08:42:47;;;;;;;19.90;16.95;;;;;;;-0.47;100.00;97914.13;1225010;75;2924815;-63
2023/12/09 08:45:21;;;;;;;24.65;18.90;;;;;;;-0.76;100.00;97921.63;1224280;75;2924189;-65
2023/12/09 08:47:56;;;;;;;26.15;19.40;;;;;;;-0.98;100.00;97924.41;1224969;75;2921082;-64
2023/12/09 08:50:29;;;;;;;28.90;20.80;;;;;;;-0.95;100.00;97922.88;1224894;75;2920192;-65
2023/12/09 08:53:02;;;;;;;25.70;19.20;;;;;;;-0.87;100.00;97927.81;1225196;75;2922425;-65
2023/12/09 08:55:35;;;;;;;24.60;17.15;;;;;;;-0.66;100.00;97931.53;1225081;75;2922410;-66
2023/12/09 08:58:08;;;;;;;30.05;20.45;;;;;;;-0.81;100.00;97933.53;1224463;75;2916665;-65
2023/12/09 09:00:41;;;;;;;27.20;21.00;;;;;;;-0.60;100.00;97938.03;1224762;75;2914177;-65
2023/12/09 09:03:16;;;;;;;28.50;20.20;;;;;;;-0.46;100.00;97940.63;1224540;75;2917594;-65
2023/12/09 09:05:49;;;;;;;32.35;22.20;;;;;;;-0.48;100.00;97942.94;1224848;75;2920354;-64
2023/12/09 09:08:22;;;;;;;30.10;21.50;;;;;;;-0.39;100.00;97947.88;1224260;75;2922362;-67
2023/12/09 09:10:55;;;;;;;29.50;21.65;;;;;;;-0.74;100.00;97940.81;1225016;75;2925065;-66
2023/12/09 09:13:31;;;;;;;27.35;20.25;;;;;;;-0.93;100.00;97950.13;1224858;75;2925445;-66
2023/12/09 09:16:04;;;;;;;29.50;21.75;;;;;;;-0.87;100.00;97938.56;1224928;75;2922348;-64
2023/12/09 09:18:39;;;;;;;24.75;19.35;;;;;;;-0.81;100.00;97938.16;1225032;75;2917822;-65
2023/12/09 09:21:12;;;;;;;20.45;16.70;;;;;;;-0.68;100.00;97933.84;1223891;75;2918171;-65
2023/12/09 09:23:45;;;;;;;22.45;17.05;;;;;;;-0.73;100.00;97937.72;1225209;75;2924904;-61
2023/12/09 09:26:18;;;;;;;24.45;18.45;;;;;;;-0.97;100.00;97931.31;1223747;75;2919436;-66
2023/12/09 09:28:51;;;;;;;28.70;18.55;;;;;;;-0.58;100.00;97921.50;1223817;75;2931531;-67
2023/12/09 09:31:23;;;;;;;26.50;19.30;;;;;;;-0.66;100.00;97913.47;1223268;75;2935480;-65
2023/12/09 09:33:59;;;;;;;25.30;18.40;;;;;;;-0.66;100.00;97913.47;1219934;75;3077772;-63
2023/12/09 09:36:32;;;;;;;29.75;20.05;;;;;;;-0.68;100.00;97910.41;1224665;75;2923404;-66
2023/12/09 09:39:06;;;;;;;27.70;18.85;;;;;;;-0.62;100.00;97905.41;1225591;75;2923123;-64
2023/12/09 09:41:53;;;;;;;23.10;17.90;;;;;;;-0.38;100.00;97908.31;1225130;75;2936727;-62
2023/12/09 09:44:29;;;;;;;19.90;15.80;;;;;;;0.02;100.00;97916.81;1224851;75;2947464;-64
2023/12/09 09:47:03;;;;;;;20.65;16.30;;;;;;;0.06;100.00;97912.16;1223338;75;2928556;-65
2023/12/09 09:49:40;;;;;;;21.40;15.65;;;;;;;0.15;100.00;97909.78;1225366;75;2917799;-63
2023/12/09 09:52:15;;;;;;;25.40;18.65;;;;;;;-0.29;100.00;97909.38;1224285;75;2930362;-65
2023/12/09 09:54:49;;;;;;;29.90;21.05;;;;;;;-0.26;100.00;97907.81;1223942;75;2927826;-66
2023/12/09 09:57:23;;;;;;;27.05;20.15;;;;;;;-0.31;100.00;97900.19;1224554;83;2930046;-66
2023/12/09 09:59:57;;;;;;;29.35;22.85;;;;;;;-0.38;100.00;97897.56;1224445;75;2918238;-65
2023/12/09 10:02:31;;;;;;;26.10;20.35;;;;;;;-0.24;100.00;97890.13;1224233;75;2934046;-68
2023/12/09 10:05:08;;;;;;;32.65;21.60;;;;;;;-0.23;100.00;97880.13;1224669;75;2916527;-63
2023/12/09 10:07:41;;;;;;;30.25;19.75;;;;;;;-0.23;100.00;97883.56;1224532;75;2922529;-62
2023/12/09 10:10:16;;;;;;;33.40;22.15;;;;;;;-0.42;100.00;97876.03;1221747;75;3079732;-64
2023/12/09 10:12:50;;;;;;;28.60;21.30;;;;;;;-0.34;100.00;97871.38;1224496;75;2930300;-64
2023/12/09 10:15:23;;;;;;;37.55;23.70;;;;;;;-0.26;100.00;97867.47;1224421;75;2924942;-63
2023/12/09 10:17:56;;;;;;;27.50;20.75;;;;;;;-0.03;100.00;97874.94;1225316;75;2920848;-62
2023/12/09 10:20:33;;;;;;;25.40;18.55;;;;;;;0.02;100.00;97869.13;1224514;75;2919797;-66
2023/12/09 10:23:07;;;;;;;33.05;23.90;;;;;;;-0.15;100.00;97857.38;1225089;75;2921025;-65
2023/12/09 10:25:40;;;;;;;28.25;22.15;;;;;;;-0.34;100.00;97853.31;1224075;75;2922454;-65
2023/12/09 10:28:13;;;;;;;28.35;21.95;;;;;;;-0.11;100.00;97857.34;1224100;75;2917578;-68
2023/12/09 10:30:46;;;;;;;28.40;20.80;;;;;;;-0.04;100.00;97846.50;1225405;75;2915780;-64
2023/12/09 10:33:20;;;;;;;26.20;19.85;;;;;;;0.23;100.00;97837.78;1224229;75;2918008;-65
2023/12/09 10:35:56;;;;;;;26.25;19.50;;;;;;;0.28;100.00;97826.56;1223834;75;2934774;-63
2023/12/09 10:38:29;;;;;;;23.40;18.35;;;;;;;0.68;100.00;97826.84;1222971;75;2923283;-61
2023/12/09 10:41:02;;;;;;;29.30;22.05;;;;;;;1.32;100.00;97822.47;1224416;75;2921158;-65
2023/12/09 10:43:35;;;;;;;38.75;26.15;;;;;;;1.74;100.00;97825.66;1223338;75;2917894;-62
2023/12/09 10:46:08;;;;;;;28.40;22.45;;;;;;;3.87;94.62;97809.88;1224291;75;2921409;-63
2023/12/09 10:48:42;;;;;;;25.05;20.40;;;;;;;5.55;84.03;97805.72;1222887;75;2926947;-65
2023/12/09 10:51:18;;;;;;;26.70;20.70;;;;;;;6.20;76.98;97806.31;1224864;75;2928414;-65
2023/12/09 10:53:51;;;;;;;28.85;20.30;;;;;;;7.75;70.49;97796.50;1224257;75;2921503;-66
2023/12/09 10:56:25;;;;;;;23.80;19.00;;;;;;;8.05;68.24;97816.66;1224564;75;2924130;-63
2023/12/09 10:58:59;;;;;;;29.70;21.45;;;;;;;7.49;68.00;97804.19;1223855;75;2918276;-66
2023/12/09 11:01:33;;;;;;;28.05;21.70;;;;;;;6.88;69.40;97786.72;1224243;75;2928438;-62
2023/12/09 11:04:07;;;;;;;26.55;20.00;;;;;;;7.71;65.98;97792.41;1226070;75;2917078;-65
2023/12/09 11:06:47;;;;;;;24.50;18.75;;;;;;;9.43;62.54;97784.72;1224392;75;2916088;-65
2023/12/09 11:09:21;;;;;;;22.05;17.45;;;;;;;10.01;58.42;97781.44;1225668;75;2921080;-65
2023/12/09 11:11:54;;;;;;;23.55;17.10;;;;;;;10.76;55.74;97789.75;1225206;75;2922198;-63
2023/12/09 11:14:30;;;;;;;26.25;18.90;;;;;;;11.32;55.31;97785.09;1224583;75;2917528;-64
2023/12/09 11:17:03;;;;;;;24.45;19.40;;;;;;;10.20;56.21;97786.78;1224114;75;2928922;-63
2023/12/09 11:19:36;;;;;;;21.95;18.50;;;;;;;11.57;54.12;97777.44;1224595;75;2922132;-66
2023/12/09 11:22:17;;;;;;;23.65;17.50;;;;;;;12.05;51.15;97774.28;1224360;75;2921929;-64